sensor_id;sensor_type;location;lat;lon;timestamp;pressure;altitude;pressure_sealevel;temperature;humidity
21956;BME280;11142;49.930;8.606;2024-02-14T00:01:29;100439.28;;;7.65;100.00
21956;BME280;11142;49.930;8.606;2024-02-14T00:03:58;100439.97;;;7.87;100.00
21956;BME280;11142;49.930;8.606;2024-02-14T00:06:26;100438.78;;;7.94;100.00
21956;BME280;11142;49.930;8.606;2024-02-14T00:08:56;100434.25;;;7.99;100.00
21956;BME280;11142;49.930;8.606;2024-02-14T00:11:26;100439.28;;;8.02;100.00
21956;BME280;11142;49.930;8.606;2024-02-14T00:13:54;100425.44;;;8.03;100.00
21956;BME280;11142;49.930;8.606;2024-02-14T00:16:23;100444.00;;;8.11;100.00
21956;BME280;11142;49.930;8.606;2024-02-14T00:18:52;100444.34;;;8.03;100.00
21956;BME280;11142;49.930;8.606;2024-02-14T00:21:20;100436.41;;;8.08;100.00
21956;BME280;11142;49.930;8.606;2024-02-14T00:23:51;100439.22;;;7.85;100.00
21956;BME280;11142;49.930;8.606;2024-02-14T00:26:22;100421.91;;;7.68;100.00
21956;BME280;11142;49.930;8.606;2024-02-14T00:28:51;100415.72;;;7.54;100.00
21956;BME280;11142;49.930;8.606;2024-02-14T00:31:19;100417.38;;;7.36;100.00
21956;BME280;11142;49.930;8.606;2024-02-14T00:33:47;100412.16;;;7.37;100.00
21956;BME280;11142;49.930;8.606;2024-02-14T00:36:19;100403.22;;;7.26;100.00
21956;BME280;11142;49.930;8.606;2024-02-14T00:38:51;100404.13;;;7.43;100.00
21956;BME280;11142;49.930;8.606;2024-02-14T00:41:22;100396.66;;;7.37;100.00
21956;BME280;11142;49.930;8.606;2024-02-14T00:43:56;100398.91;;;7.45;100.00
21956;BME280;11142;49.930;8.606;2024-02-14T00:46:25;100401.41;;;7.46;100.00
21956;BME280;11142;49.930;8.606;2024-02-14T00:48:55;100398.81;;;7.46;100.00
21956;BME280;11142;49.930;8.606;2024-02-14T00:51:25;100399.66;;;7.47;100.00
21956;BME280;11142;49.930;8.606;2024-02-14T00:53:53;100397.06;;;7.47;100.00
21956;BME280;11142;49.930;8.606;2024-02-14T00:56:24;100394.63;;;7.44;100.00
21956;BME280;11142;49.930;8.606;2024-02-14T00:58:52;100391.06;;;7.46;100.00
21956;BME280;11142;49.930;8.606;2024-02-14T01:01:21;100399.78;;;7.63;100.00
21956;BME280;11142;49.930;8.606;2024-02-14T01:03:50;100391.25;;;7.79;100.00
21956;BME280;11142;49.930;8.606;2024-02-14T01:06:19;100397.78;;;8.05;100.00
21956;BME280;11142;49.930;8.606;2024-02-14T01:08:48;100399.28;;;7.92;100.00
21956;BME280;11142;49.930;8.606;2024-02-14T01:11:17;100386.22;;;7.95;100.00
21956;BME280;11142;49.930;8.606;2024-02-14T01:13:47;100394.84;;;7.94;100.00
21956;BME280;11142;49.930;8.606;2024-02-14T01:16:16;100377.16;;;7.68;100.00
21956;BME280;11142;49.930;8.606;2024-02-14T01:18:45;100374.13;;;7.41;100.00
21956;BME280;11142;49.930;8.606;2024-02-14T01:21:16;100370.69;;;7.22;100.00
21956;BME280;11142;49.930;8.606;2024-02-14T01:23:45;100366.38;;;7.22;100.00
21956;BME280;11142;49.930;8.606;2024-02-14T01:26:15;100364.00;;;7.36;100.00
21956;BME280;11142;49.930;8.606;2024-02-14T01:28:44;100358.66;;;7.22;100.00
21956;BME280;11142;49.930;8.606;2024-02-14T01:31:13;100350.66;;;7.08;100.00
21956;BME280;11142;49.930;8.606;2024-02-14T01:33:42;100346.13;;;6.94;100.00
21956;BME280;11142;49.930;8.606;2024-02-14T01:36:12;100341.38;;;6.85;100.00
21956;BME280;11142;49.930;8.606;2024-02-14T01:38:41;100341.59;;;6.81;100.00
21956;BME280;11142;49.930;8.606;2024-02-14T05:51:58;100381.03;;;8.98;100.00
21956;BME280;11142;49.930;8.606;2024-02-14T05:54:29;100386.72;;;9.04;100.00
21956;BME280;11142;49.930;8.606;2024-02-14T05:56:57;100399.28;;;9.12;100.00
21956;BME280;11142;49.930;8.606;2024-02-14T05:59:25;100397.00;;;9.06;100.00
21956;BME280;11142;49.930;8.606;2024-02-14T06:01:53;100396.59;;;9.14;100.00
21956;BME280;11142;49.930;8.606;2024-02-14T06:04:22;100399.34;;;9.11;100.00
21956;BME280;11142;49.930;8.606;2024-02-14T06:06:50;100411.16;;;9.16;100.00
21956;BME280;11142;49.930;8.606;2024-02-14T06:09:19;100412.31;;;9.26;100.00
21956;BME280;11142;49.930;8.606;2024-02-14T06:11:47;100412.75;;;9.34;100.00
21956;BME280;11142;49.930;8.606;2024-02-14T06:14:16;100412.06;;;9.31;100.00
21956;BME280;11142;49.930;8.606;2024-02-14T06:16:45;100413.50;;;8.88;100.00
21956;BME280;11142;49.930;8.606;2024-02-14T06:19:13;100403.78;;;8.59;100.00
21956;BME280;11142;49.930;8.606;2024-02-14T06:21:42;100394.31;;;8.40;100.00
21956;BME280;11142;49.930;8.606;2024-02-14T06:24:10;100398.00;;;8.36;100.00
21956;BME280;11142;49.930;8.606;2024-02-14T06:26:41;100393.75;;;8.17;100.00
21956;BME280;11142;49.930;8.606;2024-02-14T06:29:09;100390.56;;;8.12;100.00
21956;BME280;11142;49.930;8.606;2024-02-14T06:31:37;100390.31;;;8.16;100.00
21956;BME280;11142;49.930;8.606;2024-02-14T06:34:06;100400.53;;;8.19;100.00
21956;BME280;11142;49.930;8.606;2024-02-14T06:36:35;100399.97;;;8.13;100.00
21956;BME280;11142;49.930;8.606;2024-02-14T06:39:04;100404.44;;;8.09;100.00
21956;BME280;11142;49.930;8.606;2024-02-14T06:41:34;100410.84;;;8.19;100.00
21956;BME280;11142;49.930;8.606;2024-02-14T06:44:04;100408.56;;;8.13;100.00
21956;BME280;11142;49.930;8.606;2024-02-14T06:46:32;100410.44;;;8.28;100.00
21956;BME280;11142;49.930;8.606;2024-02-14T06:49:02;100412.31;;;8.43;100.00
21956;BME280;11142;49.930;8.606;2024-02-14T06:51:31;100420.03;;;8.78;100.00
21956;BME280;11142;49.930;8.606;2024-02-14T06:54:00;100432.72;;;8.99;100.00
21956;BME280;11142;49.930;8.606;2024-02-14T06:56:29;100442.59;;;9.08;100.00
21956;BME280;11142;49.930;8.606;2024-02-14T06:58:57;100447.16;;;9.36;100.00
21956;BME280;11142;49.930;8.606;2024-02-14T07:01:29;100438.31;;;9.40;100.00
21956;BME280;11142;49.930;8.606;2024-02-14T07:06:25;100457.00;;;9.78;100.00
21956;BME280;11142;49.930;8.606;2024-02-14T07:08:55;100467.59;;;9.74;100.00
21956;BME280;11142;49.930;8.606;2024-02-14T07:11:23;100465.09;;;9.72;100.00
21956;BME280;11142;49.930;8.606;2024-02-14T07:13:51;100469.88;;;9.80;100.00
21956;BME280;11142;49.930;8.606;2024-02-14T07:16:20;100471.03;;;9.90;100.00
21956;BME280;11142;49.930;8.606;2024-02-14T07:18:49;100475.06;;;9.80;100.00
21956;BME280;11142;49.930;8.606;2024-02-14T07:21:18;100472.31;;;9.67;100.00
21956;BME280;11142;49.930;8.606;2024-02-14T07:23:46;100473.53;;;9.60;100.00
21956;BME280;11142;49.930;8.606;2024-02-14T07:26:14;100470.13;;;9.59;100.00
21956;BME280;11142;49.930;8.606;2024-02-14T07:28:42;100462.59;;;9.71;100.00
21956;BME280;11142;49.930;8.606;2024-02-14T07:31:11;100464.84;;;9.77;100.00
21956;BME280;11142;49.930;8.606;2024-02-14T07:33:39;100470.81;;;9.94;100.00
21956;BME280;11142;49.930;8.606;2024-02-14T07:36:09;100468.19;;;10.10;100.00
21956;BME280;11142;49.930;8.606;2024-02-14T07:38:37;100462.94;;;10.11;100.00
21956;BME280;11142;49.930;8.606;2024-02-14T07:41:05;100472.91;;;10.19;100.00
21956;BME280;11142;49.930;8.606;2024-02-14T07:43:34;100472.50;;;9.95;100.00
21956;BME280;11142;49.930;8.606;2024-02-14T07:46:02;100478.00;;;9.89;100.00
21956;BME280;11142;49.930;8.606;2024-02-14T07:48:32;100477.56;;;9.97;100.00
21956;BME280;11142;49.930;8.606;2024-02-14T07:51:01;100477.75;;;9.94;100.00
21956;BME280;11142;49.930;8.606;2024-02-14T07:53:31;100465.69;;;10.08;100.00
21956;BME280;11142;49.930;8.606;2024-02-14T07:55:59;100472.38;;;10.12;100.00
21956;BME280;11142;49.930;8.606;2024-02-14T07:58:27;100478.69;;;10.24;100.00
21956;BME280;11142;49.930;8.606;2024-02-14T08:00:56;100486.31;;;10.27;100.00
21956;BME280;11142;49.930;8.606;2024-02-14T08:03:24;100483.28;;;10.19;100.00
21956;BME280;11142;49.930;8.606;2024-02-14T08:05:52;100487.94;;;9.97;100.00
21956;BME280;11142;49.930;8.606;2024-02-14T08:08:20;100474.41;;;9.92;100.00
21956;BME280;11142;49.930;8.606;2024-02-14T08:10:54;100480.59;;;10.05;100.00
21956;BME280;11142;49.930;8.606;2024-02-14T08:13:24;100480.03;;;10.16;100.00
21956;BME280;11142;49.930;8.606;2024-02-14T08:15:52;100492.56;;;10.23;100.00
21956;BME280;11142;49.930;8.606;2024-02-14T08:18:20;100490.81;;;10.24;100.00
21956;BME280;11142;49.930;8.606;2024-02-14T08:20:50;100484.63;;;10.26;100.00
21956;BME280;11142;49.930;8.606;2024-02-14T08:23:18;100490.56;;;10.28;100.00
21956;BME280;11142;49.930;8.606;2024-02-14T08:25:47;100490.03;;;10.37;100.00
21956;BME280;11142;49.930;8.606;2024-02-14T08:28:17;100498.09;;;10.33;100.00
21956;BME280;11142;49.930;8.606;2024-02-14T08:30:48;100493.31;;;10.25;100.00
21956;BME280;11142;49.930;8.606;2024-02-14T08:33:17;100494.97;;;10.42;100.00
21956;BME280;11142;49.930;8.606;2024-02-14T08:35:45;100485.59;;;10.55;100.00
21956;BME280;11142;49.930;8.606;2024-02-14T08:38:14;100496.97;;;10.82;100.00
21956;BME280;11142;49.930;8.606;2024-02-14T08:40:42;100505.41;;;10.86;100.00
21956;BME280;11142;49.930;8.606;2024-02-14T08:43:12;100498.47;;;10.86;100.00
21956;BME280;11142;49.930;8.606;2024-02-14T08:45:42;100495.34;;;10.95;100.00
21956;BME280;11142;49.930;8.606;2024-02-14T08:48:10;100489.88;;;11.00;100.00
21956;BME280;11142;49.930;8.606;2024-02-14T08:50:38;100488.47;;;10.94;100.00
21956;BME280;11142;49.930;8.606;2024-02-14T08:53:06;100495.38;;;11.09;100.00
21956;BME280;11142;49.930;8.606;2024-02-14T08:55:37;100495.09;;;11.42;100.00
21956;BME280;11142;49.930;8.606;2024-02-14T08:58:05;100498.84;;;11.38;100.00
21956;BME280;11142;49.930;8.606;2024-02-14T09:00:37;100486.19;;;11.46;100.00
21956;BME280;11142;49.930;8.606;2024-02-14T09:03:07;100497.16;;;11.37;100.00
21956;BME280;11142;49.930;8.606;2024-02-14T09:05:36;100495.56;;;11.20;100.00
21956;BME280;11142;49.930;8.606;2024-02-14T09:08:06;100501.97;;;11.29;100.00
21956;BME280;11142;49.930;8.606;2024-02-14T09:10:34;100503.81;;;11.13;100.00
21956;BME280;11142;49.930;8.606;2024-02-14T09:13:02;100509.69;;;11.31;100.00
21956;BME280;11142;49.930;8.606;2024-02-14T09:15:31;100510.06;;;11.53;100.00
21956;BME280;11142;49.930;8.606;2024-02-14T09:17:59;100510.06;;;11.81;100.00
21956;BME280;11142;49.930;8.606;2024-02-14T09:20:32;100516.72;;;11.99;100.00
21956;BME280;11142;49.930;8.606;2024-02-14T09:23:00;100507.56;;;11.80;100.00
21956;BME280;11142;49.930;8.606;2024-02-14T09:25:29;100507.91;;;12.02;100.00
21956;BME280;11142;49.930;8.606;2024-02-14T09:27:57;100513.84;;;12.04;100.00
21956;BME280;11142;49.930;8.606;2024-02-14T09:30:26;100515.34;;;12.08;100.00
21956;BME280;11142;49.930;8.606;2024-02-14T09:33:04;100529.03;;;12.24;100.00
21956;BME280;11142;49.930;8.606;2024-02-14T09:35:34;100522.69;;;12.01;100.00
21956;BME280;11142;49.930;8.606;2024-02-14T09:38:04;100526.53;;;11.82;100.00
21956;BME280;11142;49.930;8.606;2024-02-14T09:40:33;100526.13;;;11.73;100.00
21956;BME280;11142;49.930;8.606;2024-02-14T09:43:03;100532.34;;;11.99;100.00
21956;BME280;11142;49.930;8.606;2024-02-14T09:45:35;100529.34;;;12.05;100.00
21956;BME280;11142;49.930;8.606;2024-02-14T09:48:05;100530.88;;;12.36;100.00
21956;BME280;11142;49.930;8.606;2024-02-14T09:50:37;100528.63;;;12.71;100.00
21956;BME280;11142;49.930;8.606;2024-02-14T09:53:07;100532.56;;;12.76;100.00
21956;BME280;11142;49.930;8.606;2024-02-14T09:55:37;100526.81;;;12.59;100.00
21956;BME280;11142;49.930;8.606;2024-02-14T09:58:06;100527.03;;;12.68;100.00
21956;BME280;11142;49.930;8.606;2024-02-14T10:00:35;100531.66;;;12.51;100.00
21956;BME280;11142;49.930;8.606;2024-02-14T10:03:05;100526.84;;;12.45;100.00
21956;BME280;11142;49.930;8.606;2024-02-14T10:05:34;100528.19;;;12.64;100.00
21956;BME280;11142;49.930;8.606;2024-02-14T10:08:05;100520.06;;;12.82;100.00
21956;BME280;11142;49.930;8.606;2024-02-14T10:10:33;100537.69;;;13.30;100.00
21956;BME280;11142;49.930;8.606;2024-02-14T10:13:04;100533.75;;;13.37;100.00
21956;BME280;11142;49.930;8.606;2024-02-14T10:15:35;100531.34;;;13.72;100.00
21956;BME280;11142;49.930;8.606;2024-02-14T10:18:04;100540.66;;;14.12;100.00
21956;BME280;11142;49.930;8.606;2024-02-14T10:20:32;100528.69;;;14.33;100.00
21956;BME280;11142;49.930;8.606;2024-02-14T10:23:03;100531.00;;;14.62;100.00
21956;BME280;11142;49.930;8.606;2024-02-14T10:25:34;100544.66;;;14.65;100.00
21956;BME280;11142;49.930;8.606;2024-02-14T10:28:04;100544.41;;;14.68;100.00
21956;BME280;11142;49.930;8.606;2024-02-14T10:30:35;100550.13;;;14.97;100.00
21956;BME280;11142;49.930;8.606;2024-02-14T10:33:05;100548.94;;;14.66;100.00
21956;BME280;11142;49.930;8.606;2024-02-14T10:35:52;100557.41;;;13.84;100.00
21956;BME280;11142;49.930;8.606;2024-02-14T10:38:27;100557.50;;;13.58;100.00
21956;BME280;11142;49.930;8.606;2024-02-14T10:40:59;100563.88;;;13.28;100.00
21956;BME280;11142;49.930;8.606;2024-02-14T10:43:28;100555.09;;;13.29;100.00
21956;BME280;11142;49.930;8.606;2024-02-14T10:45:59;100569.13;;;13.66;100.00
21956;BME280;11142;49.930;8.606;2024-02-14T10:48:28;100574.31;;;13.92;100.00
21956;BME280;11142;49.930;8.606;2024-02-14T10:51:02;100578.56;;;13.42;100.00
21956;BME280;11142;49.930;8.606;2024-02-14T10:53:34;100566.81;;;13.37;100.00
21956;BME280;11142;49.930;8.606;2024-02-14T10:56:04;100565.13;;;13.61;100.00
21956;BME280;11142;49.930;8.606;2024-02-14T10:58:33;100556.69;;;13.57;100.00
21956;BME280;11142;49.930;8.606;2024-02-14T11:01:03;100551.47;;;13.57;100.00
21956;BME280;11142;49.930;8.606;2024-02-14T11:03:35;100550.19;;;13.88;100.00
21956;BME280;11142;49.930;8.606;2024-02-14T11:06:04;100558.16;;;14.23;100.00
21956;BME280;11142;49.930;8.606;2024-02-14T11:08:34;100555.00;;;14.67;100.00
21956;BME280;11142;49.930;8.606;2024-02-14T11:11:06;100562.47;;;14.71;100.00
21956;BME280;11142;49.930;8.606;2024-02-14T11:13:35;100562.91;;;14.54;100.00
21956;BME280;11142;49.930;8.606;2024-02-14T11:16:04;100548.84;;;14.31;100.00
21956;BME280;11142;49.930;8.606;2024-02-14T11:18:34;100560.94;;;14.45;100.00
21956;BME280;11142;49.930;8.606;2024-02-14T11:21:04;100559.88;;;14.71;100.00
21956;BME280;11142;49.930;8.606;2024-02-14T11:23:34;100566.16;;;14.69;100.00
21956;BME280;11142;49.930;8.606;2024-02-14T11:26:05;100570.66;;;14.90;100.00
21956;BME280;11142;49.930;8.606;2024-02-14T11:28:37;100561.72;;;15.63;100.00
21956;BME280;11142;49.930;8.606;2024-02-14T11:31:07;100555.16;;;15.57;100.00
21956;BME280;11142;49.930;8.606;2024-02-14T11:33:36;100559.00;;;15.86;100.00
21956;BME280;11142;49.930;8.606;2024-02-14T11:36:31;100548.47;;;16.31;100.00
21956;BME280;11142;49.930;8.606;2024-02-14T11:39:07;100556.50;;;15.96;100.00
21956;BME280;11142;49.930;8.606;2024-02-14T11:41:35;100545.06;;;15.86;100.00
21956;BME280;11142;49.930;8.606;2024-02-14T11:44:04;100542.22;;;15.89;100.00
21956;BME280;11142;49.930;8.606;2024-02-14T11:46:34;100547.22;;;16.03;100.00
21956;BME280;11142;49.930;8.606;2024-02-14T11:49:03;100532.06;;;15.40;100.00
21956;BME280;11142;49.930;8.606;2024-02-14T11:51:33;100542.63;;;15.27;100.00
21956;BME280;11142;49.930;8.606;2024-02-14T11:54:06;100541.06;;;15.25;100.00
21956;BME280;11142;49.930;8.606;2024-02-14T11:56:36;100545.19;;;15.16;100.00
21956;BME280;11142;49.930;8.606;2024-02-14T11:59:07;100538.41;;;15.14;100.00
21956;BME280;11142;49.930;8.606;2024-02-14T12:01:38;100544.44;;;15.03;100.00
21956;BME280;11142;49.930;8.606;2024-02-14T12:04:09;100542.88;;;14.42;100.00
21956;BME280;11142;49.930;8.606;2024-02-14T12:06:39;100544.38;;;14.33;100.00
21956;BME280;11142;49.930;8.606;2024-02-14T12:09:11;100539.75;;;14.37;100.00
21956;BME280;11142;49.930;8.606;2024-02-14T12:11:41;100544.50;;;14.19;100.00
21956;BME280;11142;49.930;8.606;2024-02-14T12:14:11;100538.44;;;14.19;100.00
21956;BME280;11142;49.930;8.606;2024-02-14T12:16:40;100540.25;;;14.06;100.00
21956;BME280;11142;49.930;8.606;2024-02-14T12:19:10;100536.53;;;13.84;100.00
21956;BME280;11142;49.930;8.606;2024-02-14T12:21:43;100533.91;;;13.97;100.00
21956;BME280;11142;49.930;8.606;2024-02-14T12:24:13;100527.09;;;14.67;100.00
21956;BME280;11142;49.930;8.606;2024-02-14T12:26:42;100526.38;;;14.42;100.00
21956;BME280;11142;49.930;8.606;2024-02-14T12:29:11;100525.88;;;14.36;100.00
21956;BME280;11142;49.930;8.606;2024-02-14T12:31:40;100522.06;;;14.17;100.00
21956;BME280;11142;49.930;8.606;2024-02-14T12:34:10;100525.38;;;14.19;100.00
21956;BME280;11142;49.930;8.606;2024-02-14T12:36:40;100521.56;;;13.99;100.00
21956;BME280;11142;49.930;8.606;2024-02-14T12:39:09;100515.44;;;13.88;100.00
21956;BME280;11142;49.930;8.606;2024-02-14T12:41:41;100510.63;;;13.94;100.00
21956;BME280;11142;49.930;8.606;2024-02-14T12:44:09;100511.03;;;14.01;100.00
21956;BME280;11142;49.930;8.606;2024-02-14T12:46:38;100511.25;;;13.98;100.00
21956;BME280;11142;49.930;8.606;2024-02-14T12:49:07;100516.72;;;13.82;100.00
21956;BME280;11142;49.930;8.606;2024-02-14T12:51:36;100515.88;;;13.81;100.00
21956;BME280;11142;49.930;8.606;2024-02-14T12:54:05;100497.72;;;14.16;100.00
21956;BME280;11142;49.930;8.606;2024-02-14T12:56:34;100517.28;;;14.11;100.00
21956;BME280;11142;49.930;8.606;2024-02-14T12:59:03;100512.06;;;14.11;100.00
21956;BME280;11142;49.930;8.606;2024-02-14T13:01:32;100519.59;;;14.03;100.00
21956;BME280;11142;49.930;8.606;2024-02-14T13:04:01;100512.41;;;13.94;100.00
21956;BME280;11142;49.930;8.606;2024-02-14T13:06:32;100514.72;;;13.98;100.00
21956;BME280;11142;49.930;8.606;2024-02-14T13:09:00;100513.44;;;14.04;100.00
21956;BME280;11142;49.930;8.606;2024-02-14T13:11:29;100506.94;;;14.09;100.00
21956;BME280;11142;49.930;8.606;2024-02-14T13:13:59;100517.31;;;14.34;100.00
21956;BME280;11142;49.930;8.606;2024-02-14T13:16:28;100525.06;;;14.23;100.00
21956;BME280;11142;49.930;8.606;2024-02-14T13:18:56;100520.31;;;14.05;100.00
21956;BME280;11142;49.930;8.606;2024-02-14T13:21:24;100523.13;;;14.02;100.00
21956;BME280;11142;49.930;8.606;2024-02-14T13:23:52;100509.56;;;13.97;100.00
21956;BME280;11142;49.930;8.606;2024-02-14T13:26:23;100495.78;;;13.33;100.00
21956;BME280;11142;49.930;8.606;2024-02-14T13:28:52;100466.41;;;12.66;100.00
21956;BME280;11142;49.930;8.606;2024-02-14T13:31:22;100452.69;;;12.38;100.00
21956;BME280;11142;49.930;8.606;2024-02-14T13:33:52;100422.31;;;12.38;100.00
21956;BME280;11142;49.930;8.606;2024-02-14T13:36:21;100408.81;;;12.19;100.00
21956;BME280;11142;49.930;8.606;2024-02-14T13:38:51;100408.81;;;12.19;100.00
21956;BME280;11142;49.930;8.606;2024-02-14T13:41:19;100397.53;;;12.33;100.00
21956;BME280;11142;49.930;8.606;2024-02-14T13:43:47;100386.28;;;12.32;100.00
21956;BME280;11142;49.930;8.606;2024-02-14T13:46:16;100384.38;;;12.34;100.00
21956;BME280;11142;49.930;8.606;2024-02-14T13:48:44;100371.78;;;12.28;100.00
21956;BME280;11142;49.930;8.606;2024-02-14T13:51:14;100351.78;;;12.16;100.00
21956;BME280;11142;49.930;8.606;2024-02-14T13:53:42;100358.78;;;12.41;100.00
21956;BME280;11142;49.930;8.606;2024-02-14T13:56:11;100357.53;;;12.34;100.00
21956;BME280;11142;49.930;8.606;2024-02-14T13:58:39;100343.69;;;12.20;100.00
21956;BME280;11142;49.930;8.606;2024-02-14T14:01:07;100338.69;;;12.17;100.00
21956;BME280;11142;49.930;8.606;2024-02-14T14:03:35;100329.22;;;12.29;100.00
21956;BME280;11142;49.930;8.606;2024-02-14T14:06:04;100344.69;;;12.18;100.00
21956;BME280;11142;49.930;8.606;2024-02-14T14:08:36;100346.38;;;12.19;100.00
21956;BME280;11142;49.930;8.606;2024-02-14T14:11:04;100353.97;;;12.22;100.00
21956;BME280;11142;49.930;8.606;2024-02-14T14:13:32;100352.03;;;12.38;100.00
21956;BME280;11142;49.930;8.606;2024-02-14T14:16:00;100346.81;;;12.25;100.00
21956;BME280;11142;49.930;8.606;2024-02-14T14:18:30;100351.78;;;12.16;100.00
21956;BME280;11142;49.930;8.606;2024-02-14T14:21:00;100346.78;;;12.13;100.00
21956;BME280;11142;49.930;8.606;2024-02-14T14:23:29;100330.09;;;12.03;100.00
21956;BME280;11142;49.930;8.606;2024-02-14T14:25:58;100335.13;;;12.18;100.00
21956;BME280;11142;49.930;8.606;2024-02-14T14:28:27;100351.47;;;12.08;100.00
21956;BME280;11142;49.930;8.606;2024-02-14T14:30:56;100349.91;;;12.18;100.00
21956;BME280;11142;49.930;8.606;2024-02-14T14:33:28;100348.25;;;12.17;100.00
21956;BME280;11142;49.930;8.606;2024-02-14T14:35:57;100351.19;;;12.38;100.00
21956;BME280;11142;49.930;8.606;2024-02-14T14:38:25;100356.41;;;12.38;100.00
21956;BME280;11142;49.930;8.606;2024-02-14T14:40:54;100353.06;;;12.36;100.00
21956;BME280;11142;49.930;8.606;2024-02-14T14:43:24;100360.34;;;12.43;100.00
21956;BME280;11142;49.930;8.606;2024-02-14T14:45:52;100355.38;;;12.53;100.00
21956;BME280;11142;49.930;8.606;2024-02-14T14:48:20;100356.97;;;12.68;100.00
21956;BME280;11142;49.930;8.606;2024-02-14T14:50:49;100355.78;;;12.72;100.00
21956;BME280;11142;49.930;8.606;2024-02-14T14:53:19;100359.56;;;12.68;100.00
21956;BME280;11142;49.930;8.606;2024-02-14T14:55:51;100353.94;;;12.61;100.00
21956;BME280;11142;49.930;8.606;2024-02-14T14:58:19;100358.31;;;12.61;100.00
21956;BME280;11142;49.930;8.606;2024-02-14T15:00:52;100354.75;;;12.37;100.00
21956;BME280;11142;49.930;8.606;2024-02-14T15:03:21;100339.81;;;12.13;100.00
21956;BME280;11142;49.930;8.606;2024-02-14T15:05:49;100330.94;;;12.03;100.00
21956;BME280;11142;49.930;8.606;2024-02-14T15:08:18;100323.97;;;12.04;100.00
21956;BME280;11142;49.930;8.606;2024-02-14T15:10:51;100319.91;;;12.00;100.00
21956;BME280;11142;49.930;8.606;2024-02-14T15:13:19;100324.28;;;12.12;100.00
21956;BME280;11142;49.930;8.606;2024-02-14T15:15:47;100310.34;;;12.13;100.00
21956;BME280;11142;49.930;8.606;2024-02-14T15:18:17;100310.81;;;12.32;100.00
21956;BME280;11142;49.930;8.606;2024-02-14T15:20:45;100301.00;;;12.23;100.00
21956;BME280;11142;49.930;8.606;2024-02-14T15:23:13;100294.97;;;12.10;100.00
21956;BME280;11142;49.930;8.606;2024-02-14T15:25:41;100275.47;;;12.03;100.00
21956;BME280;11142;49.930;8.606;2024-02-14T15:28:10;100284.34;;;12.13;100.00
21956;BME280;11142;49.930;8.606;2024-02-14T15:30:40;100287.75;;;12.01;100.00
21956;BME280;11142;49.930;8.606;2024-02-14T15:33:27;100281.00;;;11.98;100.00
21956;BME280;11142;49.930;8.606;2024-02-14T15:35:56;100275.59;;;12.01;100.00
21956;BME280;11142;49.930;8.606;2024-02-14T15:38:25;100273.59;;;11.92;100.00
21956;BME280;11142;49.930;8.606;2024-02-14T15:40:54;100275.59;;;12.01;100.00
21956;BME280;11142;49.930;8.606;2024-02-14T15:43:24;100281.22;;;12.08;100.00
21956;BME280;11142;49.930;8.606;2024-02-14T15:45:52;100289.25;;;12.17;100.00
21956;BME280;11142;49.930;8.606;2024-02-14T15:48:21;100293.88;;;12.00;100.00
21956;BME280;11142;49.930;8.606;2024-02-14T15:50:52;100295.13;;;11.94;100.00
21956;BME280;11142;49.930;8.606;2024-02-14T15:53:21;100292.34;;;11.97;100.00
21956;BME280;11142;49.930;8.606;2024-02-14T15:55:49;100295.97;;;11.95;100.00
21956;BME280;11142;49.930;8.606;2024-02-14T15:58:18;100289.00;;;11.68;100.00
21956;BME280;11142;49.930;8.606;2024-02-14T16:00:46;100275.94;;;11.70;100.00
21956;BME280;11142;49.930;8.606;2024-02-14T16:03:14;100269.19;;;11.80;100.00
21956;BME280;11142;49.930;8.606;2024-02-14T16:05:42;100272.38;;;11.71;100.00
21956;BME280;11142;49.930;8.606;2024-02-14T16:08:14;100265.06;;;11.90;100.00
21956;BME280;11142;49.930;8.606;2024-02-14T16:10:43;100268.94;;;11.97;100.00
21956;BME280;11142;49.930;8.606;2024-02-14T16:13:11;100265.91;;;11.91;100.00
21956;BME280;11142;49.930;8.606;2024-02-14T16:15:39;100262.03;;;11.84;100.00
21956;BME280;11142;49.930;8.606;2024-02-14T16:18:07;100259.34;;;11.85;100.00
21956;BME280;11142;49.930;8.606;2024-02-14T16:20:35;100255.81;;;11.99;100.00
21956;BME280;11142;49.930;8.606;2024-02-14T16:23:04;100257.47;;;12.00;100.00
21956;BME280;11142;49.930;8.606;2024-02-14T16:25:34;100254.88;;;12.00;100.00
21956;BME280;11142;49.930;8.606;2024-02-14T16:28:05;100261.00;;;11.99;100.00
21956;BME280;11142;49.930;8.606;2024-02-14T16:30:34;100252.75;;;11.80;100.00
21956;BME280;11142;49.930;8.606;2024-02-14T16:33:02;100258.16;;;11.77;100.00
21956;BME280;11142;49.930;8.606;2024-02-14T16:35:30;100250.59;;;11.86;100.00
21956;BME280;11142;49.930;8.606;2024-02-14T16:37:59;100238.19;;;11.77;100.00
21956;BME280;11142;49.930;8.606;2024-02-14T16:40:27;100244.16;;;11.79;100.00
21956;BME280;11142;49.930;8.606;2024-02-14T16:42:58;100244.88;;;11.67;100.00
21956;BME280;11142;49.930;8.606;2024-02-14T16:45:26;100238.41;;;11.74;100.00
21956;BME280;11142;49.930;8.606;2024-02-14T16:47:54;100237.41;;;11.62;100.00
21956;BME280;11142;49.930;8.606;2024-02-14T16:50:23;100239.38;;;11.59;100.00
21956;BME280;11142;49.930;8.606;2024-02-14T16:52:51;100233.97;;;11.62;100.00
21956;BME280;11142;49.930;8.606;2024-02-14T16:55:20;100228.50;;;11.66;100.00
21956;BME280;11142;49.930;8.606;2024-02-14T16:57:48;100223.09;;;11.69;100.00
21956;BME280;11142;49.930;8.606;2024-02-14T17:00:18;100231.16;;;11.79;100.00
21956;BME280;11142;49.930;8.606;2024-02-14T17:02:46;100230.94;;;11.82;100.00
21956;BME280;11142;49.930;8.606;2024-02-14T17:05:14;100235.94;;;11.85;100.00
21956;BME280;11142;49.930;8.606;2024-02-14T17:07:42;100245.41;;;11.99;100.00